Terminal Aerodrome Forecast
Issued by NWS

Home | Current Version | Previous Version | Graphics & Text | Print | Product List | Glossary On
Versions: 1 2 3 4 5 6 7 8 9 10 11 12 13 14 15 16 17 18
343
FTUS43 KICT 211740
TAFSLN
TAF
KSLN 211740Z 2118/2218 20022G30KT P6SM FEW060 FEW250
     FM220300 18014KT P6SM SCT070 BKN200
     FM220600 18012KT P6SM SCT200
     FM221700 18015G23KT P6SM FEW250=

USA.gov is the U.S. government's official web portal to all federal, state and local government web resources and services.